sensor_id;sensor_type;location;lat;lon;timestamp;P1;durP1;ratioP1;P2;durP2;ratioP2
22673;SDS011;11504;43.334;21.918;2023-01-13T00:03:29;43.0;;;40.0;;
22673;SDS011;11504;43.334;21.918;2023-01-13T00:08:05;42.0;;;40.0;;
22673;SDS011;11504;43.334;21.918;2023-01-13T00:12:42;42.0;;;40.0;;
22673;SDS011;11504;43.334;21.918;2023-01-13T00:17:19;42.0;;;40.0;;
22673;SDS011;11504;43.334;21.918;2023-01-13T00:21:57;42.0;;;40.0;;
22673;SDS011;11504;43.334;21.918;2023-01-13T00:26:33;42.0;;;40.0;;
22673;SDS011;11504;43.334;21.918;2023-01-13T00:31:10;44.0;;;40.0;;
22673;SDS011;11504;43.334;21.918;2023-01-13T00:35:56;44.0;;;40.0;;
22673;SDS011;11504;43.334;21.918;2023-01-13T00:40:40;45.0;;;41.0;;
22673;SDS011;11504;43.334;21.918;2023-01-13T00:45:16;45.0;;;41.0;;
22673;SDS011;11504;43.334;21.918;2023-01-13T00:49:53;46.0;;;44.0;;
22673;SDS011;11504;43.334;21.918;2023-01-13T00:54:29;46.0;;;44.0;;
22673;SDS011;11504;43.334;21.918;2023-01-13T00:59:06;48.0;;;46.0;;
22673;SDS011;11504;43.334;21.918;2023-01-13T01:03:48;48.0;;;46.0;;
22673;SDS011;11504;43.334;21.918;2023-01-13T01:08:29;48.0;;;46.0;;
22673;SDS011;11504;43.334;21.918;2023-01-13T01:13:05;48.0;;;46.0;;
22673;SDS011;11504;43.334;21.918;2023-01-13T01:17:41;47.0;;;45.0;;
22673;SDS011;11504;43.334;21.918;2023-01-13T01:22:17;47.0;;;45.0;;
22673;SDS011;11504;43.334;21.918;2023-01-13T01:26:54;47.0;;;45.0;;
22673;SDS011;11504;43.334;21.918;2023-01-13T01:31:31;44.0;;;42.0;;
22673;SDS011;11504;43.334;21.918;2023-01-13T01:36:09;44.0;;;42.0;;
22673;SDS011;11504;43.334;21.918;2023-01-13T01:40:54;40.0;;;38.0;;
22673;SDS011;11504;43.334;21.918;2023-01-13T01:45:31;40.0;;;38.0;;
22673;SDS011;11504;43.334;21.918;2023-01-13T01:50:08;43.0;;;40.0;;
22673;SDS011;11504;43.334;21.918;2023-01-13T01:54:48;43.0;;;40.0;;
22673;SDS011;11504;43.334;21.918;2023-01-13T01:59:46;46.0;;;43.0;;
22673;SDS011;11504;43.334;21.918;2023-01-13T02:04:27;46.0;;;43.0;;
22673;SDS011;11504;43.334;21.918;2023-01-13T02:09:27;48.0;;;46.0;;
22673;SDS011;11504;43.334;21.918;2023-01-13T02:14:07;48.0;;;46.0;;
22673;SDS011;11504;43.334;21.918;2023-01-13T02:18:46;50.0;;;48.0;;
22673;SDS011;11504;43.334;21.918;2023-01-13T02:24:30;50.0;;;48.0;;
22673;SDS011;11504;43.334;21.918;2023-01-13T02:30:29;48.0;;;44.0;;
22673;SDS011;11504;43.334;21.918;2023-01-13T02:35:26;48.0;;;44.0;;
22673;SDS011;11504;43.334;21.918;2023-01-13T02:40:39;45.0;;;41.0;;
22673;SDS011;11504;43.334;21.918;2023-01-13T02:45:43;45.0;;;41.0;;
22673;SDS011;11504;43.334;21.918;2023-01-13T02:50:47;48.0;;;42.0;;
22673;SDS011;11504;43.334;21.918;2023-01-13T02:55:47;48.0;;;42.0;;
22673;SDS011;11504;43.334;21.918;2023-01-13T03:00:40;50.0;;;42.0;;
22673;SDS011;11504;43.334;21.918;2023-01-13T03:05:23;50.0;;;42.0;;
22673;SDS011;11504;43.334;21.918;2023-01-13T03:10:04;48.0;;;43.0;;
22673;SDS011;11504;43.334;21.918;2023-01-13T03:15:30;48.0;;;43.0;;
22673;SDS011;11504;43.334;21.918;2023-01-13T03:20:53;46.0;;;44.0;;
22673;SDS011;11504;43.334;21.918;2023-01-13T03:26:07;46.0;;;44.0;;
22673;SDS011;11504;43.334;21.918;2023-01-13T03:31:13;43.0;;;40.0;;
22673;SDS011;11504;43.334;21.918;2023-01-13T03:36:09;43.0;;;40.0;;
22673;SDS011;11504;43.334;21.918;2023-01-13T03:40:58;40.0;;;37.0;;
22673;SDS011;11504;43.334;21.918;2023-01-13T03:45:52;40.0;;;37.0;;
22673;SDS011;11504;43.334;21.918;2023-01-13T03:50:52;41.0;;;36.0;;
22673;SDS011;11504;43.334;21.918;2023-01-13T03:55:45;41.0;;;36.0;;
22673;SDS011;11504;43.334;21.918;2023-01-13T04:00:50;42.0;;;35.0;;
22673;SDS011;11504;43.334;21.918;2023-01-13T04:05:51;42.0;;;35.0;;
22673;SDS011;11504;43.334;21.918;2023-01-13T04:11:10;44.0;;;40.0;;
22673;SDS011;11504;43.334;21.918;2023-01-13T04:16:16;44.0;;;40.0;;
22673;SDS011;11504;43.334;21.918;2023-01-13T04:20:55;47.0;;;44.0;;
22673;SDS011;11504;43.334;21.918;2023-01-13T04:25:36;47.0;;;44.0;;
22673;SDS011;11504;43.334;21.918;2023-01-13T04:30:16;46.0;;;42.0;;
22673;SDS011;11504;43.334;21.918;2023-01-13T04:34:53;46.0;;;42.0;;
22673;SDS011;11504;43.334;21.918;2023-01-13T04:39:30;46.0;;;41.0;;
22673;SDS011;11504;43.334;21.918;2023-01-13T04:44:06;46.0;;;41.0;;
22673;SDS011;11504;43.334;21.918;2023-01-13T04:48:43;47.0;;;43.0;;
22673;SDS011;11504;43.334;21.918;2023-01-13T04:53:19;47.0;;;43.0;;
22673;SDS011;11504;43.334;21.918;2023-01-13T04:57:57;48.0;;;45.0;;
22673;SDS011;11504;43.334;21.918;2023-01-13T05:02:40;48.0;;;45.0;;
22673;SDS011;11504;43.334;21.918;2023-01-13T05:07:16;48.0;;;45.0;;
22673;SDS011;11504;43.334;21.918;2023-01-13T05:11:52;50.0;;;47.0;;
22673;SDS011;11504;43.334;21.918;2023-01-13T05:16:28;50.0;;;47.0;;
22673;SDS011;11504;43.334;21.918;2023-01-13T05:21:05;52.0;;;49.0;;
22673;SDS011;11504;43.334;21.918;2023-01-13T05:25:41;52.0;;;49.0;;
22673;SDS011;11504;43.334;21.918;2023-01-13T05:30:25;50.0;;;46.0;;
22673;SDS011;11504;43.334;21.918;2023-01-13T05:35:17;50.0;;;46.0;;
22673;SDS011;11504;43.334;21.918;2023-01-13T05:39:55;47.0;;;43.0;;
22673;SDS011;11504;43.334;21.918;2023-01-13T05:44:32;47.0;;;43.0;;
22673;SDS011;11504;43.334;21.918;2023-01-13T05:49:09;50.0;;;46.0;;
22673;SDS011;11504;43.334;21.918;2023-01-13T05:53:45;50.0;;;46.0;;
22673;SDS011;11504;43.334;21.918;2023-01-13T05:58:23;53.0;;;48.0;;
22673;SDS011;11504;43.334;21.918;2023-01-13T06:03:03;53.0;;;48.0;;
22673;SDS011;11504;43.334;21.918;2023-01-13T06:07:43;55.0;;;51.0;;
22673;SDS011;11504;43.334;21.918;2023-01-13T06:12:19;55.0;;;51.0;;
22673;SDS011;11504;43.334;21.918;2023-01-13T06:16:56;55.0;;;51.0;;
22673;SDS011;11504;43.334;21.918;2023-01-13T06:21:32;57.0;;;54.0;;
22673;SDS011;11504;43.334;21.918;2023-01-13T06:26:10;57.0;;;54.0;;
22673;SDS011;11504;43.334;21.918;2023-01-13T06:30:59;62.0;;;58.0;;
22673;SDS011;11504;43.334;21.918;2023-01-13T06:35:45;62.0;;;58.0;;
22673;SDS011;11504;43.334;21.918;2023-01-13T06:40:45;68.0;;;63.0;;
22673;SDS011;11504;43.334;21.918;2023-01-13T06:45:24;68.0;;;63.0;;
22673;SDS011;11504;43.334;21.918;2023-01-13T06:50:06;69.0;;;64.0;;
22673;SDS011;11504;43.334;21.918;2023-01-13T06:54:45;69.0;;;64.0;;
22673;SDS011;11504;43.334;21.918;2023-01-13T06:59:22;70.0;;;65.0;;
22673;SDS011;11504;43.334;21.918;2023-01-13T07:03:58;70.0;;;65.0;;
22673;SDS011;11504;43.334;21.918;2023-01-13T07:08:35;65.0;;;61.0;;
22673;SDS011;11504;43.334;21.918;2023-01-13T07:13:11;65.0;;;61.0;;
22673;SDS011;11504;43.334;21.918;2023-01-13T07:17:48;60.0;;;57.0;;
22673;SDS011;11504;43.334;21.918;2023-01-13T07:22:25;60.0;;;57.0;;
22673;SDS011;11504;43.334;21.918;2023-01-13T07:27:02;60.0;;;57.0;;
22673;SDS011;11504;43.334;21.918;2023-01-13T07:31:38;63.0;;;58.0;;
22673;SDS011;11504;43.334;21.918;2023-01-13T07:36:15;63.0;;;58.0;;
22673;SDS011;11504;43.334;21.918;2023-01-13T07:40:51;66.0;;;59.0;;
22673;SDS011;11504;43.334;21.918;2023-01-13T07:45:28;66.0;;;59.0;;
22673;SDS011;11504;43.334;21.918;2023-01-13T07:50:04;59.0;;;54.0;;
22673;SDS011;11504;43.334;21.918;2023-01-13T07:54:45;59.0;;;54.0;;
22673;SDS011;11504;43.334;21.918;2023-01-13T07:59:21;52.0;;;48.0;;
22673;SDS011;11504;43.334;21.918;2023-01-13T08:03:58;52.0;;;48.0;;
22673;SDS011;11504;43.334;21.918;2023-01-13T08:08:35;49.0;;;46.0;;
22673;SDS011;11504;43.334;21.918;2023-01-13T08:13:14;49.0;;;46.0;;
22673;SDS011;11504;43.334;21.918;2023-01-13T08:17:55;46.0;;;43.0;;
22673;SDS011;11504;43.334;21.918;2023-01-13T08:22:33;46.0;;;43.0;;
22673;SDS011;11504;43.334;21.918;2023-01-13T08:27:09;46.0;;;43.0;;
22673;SDS011;11504;43.334;21.918;2023-01-13T08:31:46;45.0;;;41.0;;
22673;SDS011;11504;43.334;21.918;2023-01-13T08:36:23;45.0;;;41.0;;
22673;SDS011;11504;43.334;21.918;2023-01-13T08:40:59;44.0;;;39.0;;
22673;SDS011;11504;43.334;21.918;2023-01-13T08:45:53;44.0;;;39.0;;
22673;SDS011;11504;43.334;21.918;2023-01-13T08:50:36;45.0;;;40.0;;
22673;SDS011;11504;43.334;21.918;2023-01-13T08:55:12;45.0;;;40.0;;
22673;SDS011;11504;43.334;21.918;2023-01-13T08:59:48;46.0;;;42.0;;
22673;SDS011;11504;43.334;21.918;2023-01-13T09:04:26;46.0;;;42.0;;
22673;SDS011;11504;43.334;21.918;2023-01-13T09:09:05;59.0;;;54.0;;
22673;SDS011;11504;43.334;21.918;2023-01-13T09:13:41;59.0;;;54.0;;
22673;SDS011;11504;43.334;21.918;2023-01-13T09:18:17;72.0;;;66.0;;
22673;SDS011;11504;43.334;21.918;2023-01-13T09:22:54;72.0;;;66.0;;
22673;SDS011;11504;43.334;21.918;2023-01-13T09:27:30;72.0;;;66.0;;
22673;SDS011;11504;43.334;21.918;2023-01-13T09:32:09;74.0;;;68.0;;
22673;SDS011;11504;43.334;21.918;2023-01-13T09:36:50;74.0;;;68.0;;
22673;SDS011;11504;43.334;21.918;2023-01-13T09:41:27;75.0;;;71.0;;
22673;SDS011;11504;43.334;21.918;2023-01-13T09:46:25;75.0;;;71.0;;
22673;SDS011;11504;43.334;21.918;2023-01-13T09:51:30;78.0;;;72.0;;
22673;SDS011;11504;43.334;21.918;2023-01-13T09:56:31;78.0;;;72.0;;
22673;SDS011;11504;43.334;21.918;2023-01-13T10:01:13;81.0;;;72.0;;
22673;SDS011;11504;43.334;21.918;2023-01-13T10:06:25;81.0;;;72.0;;
22673;SDS011;11504;43.334;21.918;2023-01-13T10:11:16;79.0;;;69.0;;
22673;SDS011;11504;43.334;21.918;2023-01-13T10:16:10;79.0;;;69.0;;
22673;SDS011;11504;43.334;21.918;2023-01-13T10:21:21;77.0;;;66.0;;
22673;SDS011;11504;43.334;21.918;2023-01-13T10:26:58;77.0;;;66.0;;
22673;SDS011;11504;43.334;21.918;2023-01-13T10:31:53;77.0;;;68.0;;
22673;SDS011;11504;43.334;21.918;2023-01-13T10:36:35;77.0;;;68.0;;
22673;SDS011;11504;43.334;21.918;2023-01-13T10:41:19;77.0;;;71.0;;
22673;SDS011;11504;43.334;21.918;2023-01-13T10:46:03;77.0;;;71.0;;
22673;SDS011;11504;43.334;21.918;2023-01-13T10:50:53;77.0;;;70.0;;
22673;SDS011;11504;43.334;21.918;2023-01-13T10:55:31;77.0;;;70.0;;
22673;SDS011;11504;43.334;21.918;2023-01-13T11:00:19;77.0;;;68.0;;
22673;SDS011;11504;43.334;21.918;2023-01-13T11:05:09;77.0;;;68.0;;
22673;SDS011;11504;43.334;21.918;2023-01-13T11:10:02;78.0;;;70.0;;
22673;SDS011;11504;43.334;21.918;2023-01-13T11:15:03;78.0;;;70.0;;
22673;SDS011;11504;43.334;21.918;2023-01-13T11:20:14;80.0;;;71.0;;
22673;SDS011;11504;43.334;21.918;2023-01-13T11:25:14;80.0;;;71.0;;
22673;SDS011;11504;43.334;21.918;2023-01-13T11:30:08;79.0;;;72.0;;
22673;SDS011;11504;43.334;21.918;2023-01-13T11:35:14;79.0;;;72.0;;
22673;SDS011;11504;43.334;21.918;2023-01-13T11:39:58;78.0;;;74.0;;
22673;SDS011;11504;43.334;21.918;2023-01-13T11:45:01;78.0;;;74.0;;
22673;SDS011;11504;43.334;21.918;2023-01-13T11:50:13;84.0;;;78.0;;
22673;SDS011;11504;43.334;21.918;2023-01-13T11:55:18;84.0;;;78.0;;
22673;SDS011;11504;43.334;21.918;2023-01-13T12:00:42;89.0;;;83.0;;
22673;SDS011;11504;43.334;21.918;2023-01-13T12:06:35;89.0;;;83.0;;
22673;SDS011;11504;43.334;21.918;2023-01-13T12:11:20;80.0;;;74.0;;
22673;SDS011;11504;43.334;21.918;2023-01-13T12:16:42;80.0;;;74.0;;
22673;SDS011;11504;43.334;21.918;2023-01-13T12:21:25;70.0;;;66.0;;
22673;SDS011;11504;43.334;21.918;2023-01-13T12:26:33;70.0;;;66.0;;
22673;SDS011;11504;43.334;21.918;2023-01-13T12:31:37;65.0;;;62.0;;
22673;SDS011;11504;43.334;21.918;2023-01-13T12:36:26;65.0;;;62.0;;
22673;SDS011;11504;43.334;21.918;2023-01-13T12:41:48;60.0;;;57.0;;
22673;SDS011;11504;43.334;21.918;2023-01-13T12:46:52;60.0;;;57.0;;
22673;SDS011;11504;43.334;21.918;2023-01-13T12:51:34;48.0;;;46.0;;
22673;SDS011;11504;43.334;21.918;2023-01-13T12:56:49;48.0;;;46.0;;
22673;SDS011;11504;43.334;21.918;2023-01-13T13:01:33;36.0;;;34.0;;
22673;SDS011;11504;43.334;21.918;2023-01-13T13:06:13;36.0;;;34.0;;
22673;SDS011;11504;43.334;21.918;2023-01-13T13:11:13;36.0;;;34.0;;
22673;SDS011;11504;43.334;21.918;2023-01-13T13:16:35;36.0;;;34.0;;
22673;SDS011;11504;43.334;21.918;2023-01-13T13:21:26;35.0;;;34.0;;
22673;SDS011;11504;43.334;21.918;2023-01-13T13:27:25;35.0;;;34.0;;
22673;SDS011;11504;43.334;21.918;2023-01-13T13:32:48;36.0;;;34.0;;
22673;SDS011;11504;43.334;21.918;2023-01-13T13:38:39;38.0;;;35.0;;
22673;SDS011;11504;43.334;21.918;2023-01-13T13:44:01;38.0;;;35.0;;
22673;SDS011;11504;43.334;21.918;2023-01-13T13:49:04;37.0;;;34.0;;
22673;SDS011;11504;43.334;21.918;2023-01-13T13:53:41;37.0;;;34.0;;
22673;SDS011;11504;43.334;21.918;2023-01-13T13:58:18;36.0;;;34.0;;
22673;SDS011;11504;43.334;21.918;2023-01-13T14:02:57;36.0;;;34.0;;
22673;SDS011;11504;43.334;21.918;2023-01-13T14:07:59;36.0;;;34.0;;
22673;SDS011;11504;43.334;21.918;2023-01-13T14:12:51;32.0;;;31.0;;
22673;SDS011;11504;43.334;21.918;2023-01-13T14:17:28;32.0;;;31.0;;
22673;SDS011;11504;43.334;21.918;2023-01-13T14:22:11;29.0;;;28.0;;
22673;SDS011;11504;43.334;21.918;2023-01-13T14:26:51;29.0;;;28.0;;
22673;SDS011;11504;43.334;21.918;2023-01-13T14:31:50;26.0;;;24.0;;
22673;SDS011;11504;43.334;21.918;2023-01-13T14:36:34;26.0;;;24.0;;
22673;SDS011;11504;43.334;21.918;2023-01-13T14:41:18;23.0;;;21.0;;
22673;SDS011;11504;43.334;21.918;2023-01-13T14:46:08;23.0;;;21.0;;
22673;SDS011;11504;43.334;21.918;2023-01-13T14:50:49;28.0;;;26.0;;
22673;SDS011;11504;43.334;21.918;2023-01-13T14:55:27;28.0;;;26.0;;
22673;SDS011;11504;43.334;21.918;2023-01-13T15:00:19;34.0;;;30.0;;
22673;SDS011;11504;43.334;21.918;2023-01-13T15:05:26;34.0;;;30.0;;
22673;SDS011;11504;43.334;21.918;2023-01-13T15:10:17;41.0;;;35.0;;
22673;SDS011;11504;43.334;21.918;2023-01-13T15:15:19;41.0;;;35.0;;
22673;SDS011;11504;43.334;21.918;2023-01-13T15:20:11;48.0;;;40.0;;
22673;SDS011;11504;43.334;21.918;2023-01-13T15:24:54;48.0;;;40.0;;
22673;SDS011;11504;43.334;21.918;2023-01-13T15:29:31;46.0;;;39.0;;
22673;SDS011;11504;43.334;21.918;2023-01-13T15:34:08;46.0;;;39.0;;
22673;SDS011;11504;43.334;21.918;2023-01-13T15:38:44;45.0;;;38.0;;
22673;SDS011;11504;43.334;21.918;2023-01-13T15:43:21;45.0;;;38.0;;
22673;SDS011;11504;43.334;21.918;2023-01-13T15:47:58;45.0;;;38.0;;
22673;SDS011;11504;43.334;21.918;2023-01-13T15:52:35;42.0;;;37.0;;
22673;SDS011;11504;43.334;21.918;2023-01-13T15:57:12;42.0;;;37.0;;
22673;SDS011;11504;43.334;21.918;2023-01-13T16:01:59;40.0;;;36.0;;
22673;SDS011;11504;43.334;21.918;2023-01-13T16:06:35;40.0;;;36.0;;
22673;SDS011;11504;43.334;21.918;2023-01-13T16:11:12;40.0;;;36.0;;
22673;SDS011;11504;43.334;21.918;2023-01-13T16:15:50;40.0;;;36.0;;
22673;SDS011;11504;43.334;21.918;2023-01-13T16:20:27;41.0;;;37.0;;
22673;SDS011;11504;43.334;21.918;2023-01-13T16:25:06;41.0;;;37.0;;
22673;SDS011;11504;43.334;21.918;2023-01-13T16:30:01;38.0;;;36.0;;
22673;SDS011;11504;43.334;21.918;2023-01-13T16:34:51;38.0;;;36.0;;
22673;SDS011;11504;43.334;21.918;2023-01-13T16:39:28;36.0;;;34.0;;
22673;SDS011;11504;43.334;21.918;2023-01-13T16:44:05;36.0;;;34.0;;
22673;SDS011;11504;43.334;21.918;2023-01-13T16:48:41;38.0;;;36.0;;
22673;SDS011;11504;43.334;21.918;2023-01-13T16:53:18;38.0;;;36.0;;
22673;SDS011;11504;43.334;21.918;2023-01-13T16:57:54;38.0;;;36.0;;
22673;SDS011;11504;43.334;21.918;2023-01-13T17:02:31;40.0;;;38.0;;
22673;SDS011;11504;43.334;21.918;2023-01-13T17:07:08;40.0;;;38.0;;
22673;SDS011;11504;43.334;21.918;2023-01-13T17:11:52;34.0;;;32.0;;
22673;SDS011;11504;43.334;21.918;2023-01-13T17:16:30;34.0;;;32.0;;
22673;SDS011;11504;43.334;21.918;2023-01-13T17:21:07;28.0;;;26.0;;
22673;SDS011;11504;43.334;21.918;2023-01-13T17:25:44;28.0;;;26.0;;
22673;SDS011;11504;43.334;21.918;2023-01-13T17:30:20;34.0;;;32.0;;
22673;SDS011;11504;43.334;21.918;2023-01-13T17:34:58;34.0;;;32.0;;
22673;SDS011;11504;43.334;21.918;2023-01-13T17:39:34;41.0;;;39.0;;
22673;SDS011;11504;43.334;21.918;2023-01-13T17:44:11;41.0;;;39.0;;
22673;SDS011;11504;43.334;21.918;2023-01-13T17:48:55;48.0;;;45.0;;
22673;SDS011;11504;43.334;21.918;2023-01-13T17:53:32;48.0;;;45.0;;
22673;SDS011;11504;43.334;21.918;2023-01-13T17:58:08;48.0;;;45.0;;
22673;SDS011;11504;43.334;21.918;2023-01-13T18:02:45;54.0;;;51.0;;
22673;SDS011;11504;43.334;21.918;2023-01-13T18:07:21;54.0;;;51.0;;
22673;SDS011;11504;43.334;21.918;2023-01-13T18:11:58;64.0;;;60.0;;
22673;SDS011;11504;43.334;21.918;2023-01-13T18:16:35;64.0;;;60.0;;
22673;SDS011;11504;43.334;21.918;2023-01-13T18:21:16;73.0;;;70.0;;
22673;SDS011;11504;43.334;21.918;2023-01-13T18:26:12;73.0;;;70.0;;
22673;SDS011;11504;43.334;21.918;2023-01-13T18:30:54;92.0;;;86.0;;
22673;SDS011;11504;43.334;21.918;2023-01-13T18:35:30;92.0;;;86.0;;
22673;SDS011;11504;43.334;21.918;2023-01-13T18:40:07;110.0;;;101.0;;
22673;SDS011;11504;43.334;21.918;2023-01-13T18:44:48;110.0;;;101.0;;
22673;SDS011;11504;43.334;21.918;2023-01-13T18:49:25;103.0;;;94.0;;
22673;SDS011;11504;43.334;21.918;2023-01-13T18:54:02;103.0;;;94.0;;
22673;SDS011;11504;43.334;21.918;2023-01-13T18:58:40;96.0;;;88.0;;
22673;SDS011;11504;43.334;21.918;2023-01-13T19:03:18;96.0;;;88.0;;
22673;SDS011;11504;43.334;21.918;2023-01-13T19:07:55;96.0;;;88.0;;
22673;SDS011;11504;43.334;21.918;2023-01-13T19:12:31;104.0;;;96.0;;
22673;SDS011;11504;43.334;21.918;2023-01-13T19:17:10;104.0;;;96.0;;
22673;SDS011;11504;43.334;21.918;2023-01-13T19:21:50;111.0;;;105.0;;
22673;SDS011;11504;43.334;21.918;2023-01-13T19:26:27;111.0;;;105.0;;
22673;SDS011;11504;43.334;21.918;2023-01-13T19:31:03;106.0;;;101.0;;
22673;SDS011;11504;43.334;21.918;2023-01-13T19:35:45;106.0;;;101.0;;
22673;SDS011;11504;43.334;21.918;2023-01-13T19:40:21;102.0;;;97.0;;
22673;SDS011;11504;43.334;21.918;2023-01-13T19:44:59;102.0;;;97.0;;
22673;SDS011;11504;43.334;21.918;2023-01-13T19:49:35;89.0;;;84.0;;
22673;SDS011;11504;43.334;21.918;2023-01-13T19:54:12;89.0;;;84.0;;
22673;SDS011;11504;43.334;21.918;2023-01-13T19:58:48;76.0;;;70.0;;
22673;SDS011;11504;43.334;21.918;2023-01-13T20:03:25;76.0;;;70.0;;
22673;SDS011;11504;43.334;21.918;2023-01-13T20:08:02;76.0;;;70.0;;
22673;SDS011;11504;43.334;21.918;2023-01-13T20:12:39;122.0;;;114.0;;
22673;SDS011;11504;43.334;21.918;2023-01-13T20:17:17;122.0;;;114.0;;
22673;SDS011;11504;43.334;21.918;2023-01-13T20:21:57;167.0;;;157.0;;
22673;SDS011;11504;43.334;21.918;2023-01-13T20:26:34;167.0;;;157.0;;
22673;SDS011;11504;43.334;21.918;2023-01-13T20:31:11;114.0;;;108.0;;
22673;SDS011;11504;43.334;21.918;2023-01-13T20:35:55;114.0;;;108.0;;
22673;SDS011;11504;43.334;21.918;2023-01-13T20:40:33;62.0;;;59.0;;
22673;SDS011;11504;43.334;21.918;2023-01-13T20:45:10;62.0;;;59.0;;
22673;SDS011;11504;43.334;21.918;2023-01-13T20:49:52;46.0;;;44.0;;
22673;SDS011;11504;43.334;21.918;2023-01-13T20:54:28;46.0;;;44.0;;
22673;SDS011;11504;43.334;21.918;2023-01-13T20:59:05;31.0;;;30.0;;
22673;SDS011;11504;43.334;21.918;2023-01-13T21:03:42;31.0;;;30.0;;
22673;SDS011;11504;43.334;21.918;2023-01-13T21:08:18;31.0;;;30.0;;
22673;SDS011;11504;43.334;21.918;2023-01-13T21:12:54;32.0;;;30.0;;
22673;SDS011;11504;43.334;21.918;2023-01-13T21:17:31;32.0;;;30.0;;
22673;SDS011;11504;43.334;21.918;2023-01-13T21:22:07;34.0;;;31.0;;
22673;SDS011;11504;43.334;21.918;2023-01-13T21:26:44;34.0;;;31.0;;
22673;SDS011;11504;43.334;21.918;2023-01-13T21:31:20;35.0;;;33.0;;
22673;SDS011;11504;43.334;21.918;2023-01-13T21:35:57;35.0;;;33.0;;
22673;SDS011;11504;43.334;21.918;2023-01-13T21:40:53;36.0;;;35.0;;
22673;SDS011;11504;43.334;21.918;2023-01-13T21:45:37;36.0;;;35.0;;
22673;SDS011;11504;43.334;21.918;2023-01-13T21:50:14;36.0;;;34.0;;
22673;SDS011;11504;43.334;21.918;2023-01-13T21:55:02;36.0;;;34.0;;
22673;SDS011;11504;43.334;21.918;2023-01-13T21:59:41;35.0;;;33.0;;
22673;SDS011;11504;43.334;21.918;2023-01-13T22:04:18;35.0;;;33.0;;
22673;SDS011;11504;43.334;21.918;2023-01-13T22:08:55;30.0;;;28.0;;
22673;SDS011;11504;43.334;21.918;2023-01-13T22:13:32;30.0;;;28.0;;
22673;SDS011;11504;43.334;21.918;2023-01-13T22:18:08;30.0;;;28.0;;
22673;SDS011;11504;43.334;21.918;2023-01-13T22:22:45;26.0;;;24.0;;
22673;SDS011;11504;43.334;21.918;2023-01-13T22:27:24;26.0;;;24.0;;
22673;SDS011;11504;43.334;21.918;2023-01-13T22:32:01;28.0;;;26.0;;
22673;SDS011;11504;43.334;21.918;2023-01-13T22:36:39;28.0;;;26.0;;
22673;SDS011;11504;43.334;21.918;2023-01-13T22:41:16;30.0;;;29.0;;
22673;SDS011;11504;43.334;21.918;2023-01-13T22:45:55;30.0;;;29.0;;
22673;SDS011;11504;43.334;21.918;2023-01-13T22:50:41;42.0;;;38.0;;
22673;SDS011;11504;43.334;21.918;2023-01-13T22:55:18;42.0;;;38.0;;
22673;SDS011;11504;43.334;21.918;2023-01-13T22:59:54;53.0;;;48.0;;
22673;SDS011;11504;43.334;21.918;2023-01-13T23:04:31;53.0;;;48.0;;
22673;SDS011;11504;43.334;21.918;2023-01-13T23:09:08;51.0;;;48.0;;
22673;SDS011;11504;43.334;21.918;2023-01-13T23:13:45;51.0;;;48.0;;
22673;SDS011;11504;43.334;21.918;2023-01-13T23:18:23;51.0;;;48.0;;
22673;SDS011;11504;43.334;21.918;2023-01-13T23:23:00;49.0;;;47.0;;
22673;SDS011;11504;43.334;21.918;2023-01-13T23:27:37;49.0;;;47.0;;
22673;SDS011;11504;43.334;21.918;2023-01-13T23:32:13;55.0;;;52.0;;
22673;SDS011;11504;43.334;21.918;2023-01-13T23:36:49;55.0;;;52.0;;
22673;SDS011;11504;43.334;21.918;2023-01-13T23:41:26;61.0;;;56.0;;
22673;SDS011;11504;43.334;21.918;2023-01-13T23:46:04;61.0;;;56.0;;
22673;SDS011;11504;43.334;21.918;2023-01-13T23:50:55;61.0;;;56.0;;
22673;SDS011;11504;43.334;21.918;2023-01-13T23:55:34;61.0;;;56.0;;
